Time;durP1;ratioP1;P1;durP2;ratioP2;P2;SDS_P1;SDS_P2;PMS_P1;PMS_P2;Temp;Humidity;BMP_temperature;BMP_pressure;BME280_temperature;BME280_humidity;BME280_pressure;Samples;Min_cycle;Max_cycle;Signal;HPM_P1;HPM_P2
2023/12/28 00:01:05;;;;;;;45.60;32.70;;;;;;;;;;5012278;28;20026;-68
2023/12/28 00:03:31;;;;;;;38.15;30.42;;;;;;;;;;5012031;28;20028;-67
2023/12/28 00:05:57;;;;;;;37.85;30.77;;;;;;;;;;5012061;28;20125;-67
2023/12/28 00:08:23;;;;;;;39.53;31.40;;;;;;;;;;5011983;28;20483;-67
2023/12/28 00:10:49;;;;;;;36.45;31.17;;;;;;;;;;5012187;28;20087;-67
2023/12/28 00:13:15;;;;;;;41.75;31.38;;;;;;;;;;5012159;28;20025;-67
2023/12/28 00:15:41;;;;;;;39.75;31.27;;;;;;;;;;5012116;28;20033;-67
2023/12/28 00:18:07;;;;;;;37.95;31.52;;;;;;;;;;5011996;28;20034;-67
2023/12/28 00:20:33;;;;;;;42.67;32.03;;;;;;;;;;5011163;28;20021;-67
2023/12/28 00:23:00;;;;;;;35.60;28.95;;;;;;;;;;5008332;28;20026;-68
2023/12/28 00:25:26;;;;;;;35.92;28.98;;;;;;;;;;5013023;28;20014;-67
2023/12/28 00:27:52;;;;;;;37.13;29.88;;;;;;;;;;5018810;28;20659;-67
2023/12/28 00:30:18;;;;;;;40.42;30.20;;;;;;;;;;5011318;28;20018;-67
2023/12/28 00:32:45;;;;;;;37.05;30.05;;;;;;;;;;5009729;28;20470;-68
2023/12/28 00:35:11;;;;;;;40.17;29.33;;;;;;;;;;5011592;28;20117;-68
2023/12/28 00:37:37;;;;;;;38.75;31.27;;;;;;;;;;5011765;28;20109;-68
2023/12/28 00:40:04;;;;;;;33.72;29.45;;;;;;;;;;5030876;28;20045;-68
2023/12/28 00:42:30;;;;;;;41.80;30.35;;;;;;;;;;5017429;28;20136;-68
2023/12/28 00:44:56;;;;;;;39.92;31.08;;;;;;;;;;5021044;28;20046;-67
2023/12/28 00:47:22;;;;;;;37.17;29.10;;;;;;;;;;5011661;28;20030;-67
2023/12/28 00:49:48;;;;;;;34.85;28.90;;;;;;;;;;5014628;28;20392;-68
2023/12/28 00:52:14;;;;;;;34.90;29.77;;;;;;;;;;5029535;28;20045;-68
2023/12/28 00:54:40;;;;;;;39.97;30.17;;;;;;;;;;5014292;28;20087;-67
2023/12/28 00:57:06;;;;;;;33.47;27.83;;;;;;;;;;5015444;28;20120;-68
2023/12/28 00:59:32;;;;;;;34.35;28.38;;;;;;;;;;5014045;28;20165;-68
2023/12/28 01:01:58;;;;;;;38.65;28.92;;;;;;;;;;5015438;28;20125;-67
2023/12/28 01:04:24;;;;;;;37.38;29.35;;;;;;;;;;5015664;28;20022;-67
2023/12/28 01:06:50;;;;;;;36.35;28.38;;;;;;;;;;5015497;28;20022;-67
2023/12/28 01:09:16;;;;;;;43.38;28.30;;;;;;;;;;5027758;28;20491;-67
2023/12/28 01:11:42;;;;;;;33.75;26.23;;;;;;;;;;5015257;28;20018;-67
2023/12/28 01:14:08;;;;;;;30.92;25.48;;;;;;;;;;5015284;28;20033;-67
2023/12/28 01:16:35;;;;;;;30.90;24.90;;;;;;;;;;5015360;28;20026;-67
2023/12/28 01:19:01;;;;;;;30.85;24.13;;;;;;;;;;5015288;28;20026;-67
2023/12/28 01:21:28;;;;;;;30.48;24.30;;;;;;;;;;5015409;28;20034;-67
2023/12/28 01:23:54;;;;;;;33.40;25.95;;;;;;;;;;5015088;28;20022;-67
2023/12/28 01:26:21;;;;;;;35.97;28.80;;;;;;;;;;5028884;28;20036;-67
2023/12/28 01:28:47;;;;;;;37.40;29.00;;;;;;;;;;5015329;28;20101;-67
2023/12/28 01:31:13;;;;;;;35.13;28.88;;;;;;;;;;5014906;28;20030;-68
2023/12/28 01:33:39;;;;;;;38.53;31.67;;;;;;;;;;5014665;28;20101;-67
2023/12/28 01:36:20;;;;;;;34.92;31.20;;;;;;;;;;5014817;28;20048;-68
2023/12/28 01:38:52;;;;;;;41.15;31.45;;;;;;;;;;5014886;28;20030;-67
2023/12/28 01:41:18;;;;;;;39.60;33.55;;;;;;;;;;5014671;28;20026;-67
2023/12/28 01:43:44;;;;;;;39.45;32.60;;;;;;;;;;5028867;28;20037;-68
2023/12/28 01:46:21;;;;;;;38.28;31.77;;;;;;;;;;5014681;28;20472;-68
2023/12/28 01:48:49;;;;;;;39.47;32.47;;;;;;;;;;5014614;28;20357;-67
2023/12/28 01:51:16;;;;;;;41.05;32.75;;;;;;;;;;5014575;28;20188;-68
2023/12/28 01:53:45;;;;;;;39.72;32.20;;;;;;;;;;5014545;28;20032;-67
2023/12/28 01:56:12;;;;;;;37.50;32.55;;;;;;;;;;5013510;28;20492;-69
2023/12/28 01:58:40;;;;;;;38.72;32.58;;;;;;;;;;5014168;28;20036;-68
2023/12/28 02:01:06;;;;;;;39.92;33.08;;;;;;;;;;5013441;28;20014;-69
2023/12/28 02:03:32;;;;;;;39.42;33.10;;;;;;;;;;5014453;28;20091;-69
2023/12/28 02:05:59;;;;;;;43.45;32.10;;;;;;;;;;5017735;28;20042;-69
2023/12/28 02:08:37;;;;;;;40.90;33.00;;;;;;;;;;5028060;28;20026;-69
2023/12/28 02:11:03;;;;;;;42.72;32.15;;;;;;;;;;5013949;28;20018;-68
2023/12/28 02:13:29;;;;;;;39.25;32.78;;;;;;;;;;5013936;28;20028;-68
2023/12/28 02:15:58;;;;;;;37.72;33.38;;;;;;;;;;5013376;28;20117;-68
2023/12/28 02:18:27;;;;;;;41.75;32.38;;;;;;;;;;5013234;28;20037;-69
2023/12/28 02:20:53;;;;;;;36.85;32.88;;;;;;;;;;5019720;28;20026;-68
2023/12/28 02:23:38;;;;;;;39.75;32.20;;;;;;;;;;5013841;28;20045;-66
2023/12/28 02:26:04;;;;;;;43.83;33.08;;;;;;;;;;4999283;28;20030;-67
2023/12/28 02:28:30;;;;;;;39.10;33.33;;;;;;;;;;5013900;28;20117;-68
2023/12/28 02:30:56;;;;;;;42.53;33.25;;;;;;;;;;5013703;28;20454;-68
2023/12/28 02:33:25;;;;;;;38.05;33.15;;;;;;;;;;4999438;28;20021;-69
2023/12/28 02:35:51;;;;;;;40.40;33.00;;;;;;;;;;5013108;28;20042;-67
2023/12/28 02:38:18;;;;;;;38.63;32.63;;;;;;;;;;5012835;28;20463;-66
2023/12/28 02:40:45;;;;;;;37.90;32.03;;;;;;;;;;5013077;28;20026;-67
2023/12/28 02:43:11;;;;;;;41.30;32.67;;;;;;;;;;5008385;28;20042;-67
2023/12/28 02:45:38;;;;;;;45.05;35.15;;;;;;;;;;5011539;28;20026;-69
2023/12/28 02:48:04;;;;;;;41.05;33.67;;;;;;;;;;5012903;28;20558;-67
2023/12/28 02:50:30;;;;;;;42.65;32.80;;;;;;;;;;5012853;28;20232;-68
2023/12/28 02:52:57;;;;;;;40.22;35.15;;;;;;;;;;5012745;28;20026;-66
2023/12/28 02:55:23;;;;;;;43.13;35.05;;;;;;;;;;5012639;28;20040;-66
2023/12/28 02:57:50;;;;;;;42.20;34.30;;;;;;;;;;5012719;28;20044;-66
2023/12/28 03:00:16;;;;;;;43.03;33.03;;;;;;;;;;5012679;28;20025;-67
2023/12/28 03:02:42;;;;;;;41.90;33.63;;;;;;;;;;5008807;28;20033;-66
2023/12/28 03:05:08;;;;;;;40.03;34.05;;;;;;;;;;5012360;28;20030;-68
2023/12/28 03:07:34;;;;;;;38.33;33.42;;;;;;;;;;5013120;28;20030;-67
2023/12/28 03:10:00;;;;;;;39.33;34.28;;;;;;;;;;5012987;28;20125;-67
2023/12/28 03:12:27;;;;;;;42.25;33.38;;;;;;;;;;5012288;28;20026;-67
2023/12/28 03:14:53;;;;;;;40.45;33.10;;;;;;;;;;5013140;28;20026;-67
2023/12/28 03:17:19;;;;;;;50.72;33.60;;;;;;;;;;5012870;28;20046;-68
2023/12/28 03:19:45;;;;;;;45.35;34.33;;;;;;;;;;5012919;28;20092;-67
2023/12/28 03:22:11;;;;;;;38.00;33.10;;;;;;;;;;5013122;28;20026;-67
2023/12/28 03:27:41;;;;;;;40.30;34.83;;;;;;;;;;5004538;28;20076;-68
2023/12/28 03:30:07;;;;;;;40.42;33.45;;;;;;;;;;5004917;28;20462;-67
2023/12/28 03:32:33;;;;;;;43.83;34.40;;;;;;;;;;5012832;28;20101;-67
2023/12/28 03:34:59;;;;;;;38.35;33.13;;;;;;;;;;5012595;28;20133;-67
2023/12/28 03:37:25;;;;;;;41.97;33.67;;;;;;;;;;5011207;28;20044;-67
2023/12/28 03:39:51;;;;;;;37.80;32.15;;;;;;;;;;5012700;28;20112;-67
2023/12/28 03:42:17;;;;;;;45.83;33.15;;;;;;;;;;5008493;28;20034;-67
2023/12/28 03:44:43;;;;;;;43.45;34.28;;;;;;;;;;5010454;28;20472;-66
2023/12/28 03:47:09;;;;;;;40.17;33.50;;;;;;;;;;5012518;28;20037;-66
2023/12/28 03:49:35;;;;;;;44.90;33.10;;;;;;;;;;5012402;28;20040;-66
2023/12/28 03:52:01;;;;;;;42.17;32.60;;;;;;;;;;5012171;28;20022;-66
2023/12/28 03:54:27;;;;;;;38.70;32.97;;;;;;;;;;5006980;28;20034;-66
2023/12/28 03:56:54;;;;;;;39.78;33.42;;;;;;;;;;5012444;28;20026;-67
2023/12/28 03:59:20;;;;;;;42.70;33.10;;;;;;;;;;5012161;28;20033;-66
2023/12/28 04:01:46;;;;;;;43.58;33.88;;;;;;;;;;5012120;28;20092;-67
2023/12/28 04:04:12;;;;;;;38.03;31.95;;;;;;;;;;5012100;28;20145;-67
2023/12/28 04:06:38;;;;;;;41.53;31.73;;;;;;;;;;5012011;28;20112;-66
2023/12/28 04:09:04;;;;;;;41.45;33.78;;;;;;;;;;5012065;28;20030;-66
2023/12/28 04:11:30;;;;;;;39.33;33.67;;;;;;;;;;5010560;28;20030;-67
2023/12/28 04:13:56;;;;;;;39.58;33.15;;;;;;;;;;5012200;28;20022;-69
2023/12/28 04:16:31;;;;;;;39.83;33.97;;;;;;;;;;5011993;28;20105;-68
2023/12/28 04:18:57;;;;;;;39.90;33.53;;;;;;;;;;5011787;28;20065;-68
2023/12/28 04:21:23;;;;;;;42.83;33.05;;;;;;;;;;5011970;28;20025;-67
2023/12/28 04:23:49;;;;;;;40.95;33.50;;;;;;;;;;5010933;28;20121;-67
2023/12/28 04:26:18;;;;;;;42.03;34.35;;;;;;;;;;5011745;28;20076;-67
2023/12/28 04:28:44;;;;;;;36.45;32.47;;;;;;;;;;5010414;28;20448;-67
2023/12/28 04:31:10;;;;;;;39.50;32.15;;;;;;;;;;5011740;28;20068;-67
2023/12/28 04:33:36;;;;;;;37.58;33.45;;;;;;;;;;5011678;28;20025;-66
2023/12/28 04:36:05;;;;;;;39.83;33.00;;;;;;;;;;5011933;28;20041;-67
2023/12/28 04:38:32;;;;;;;45.35;34.72;;;;;;;;;;5011729;28;20034;-67
2023/12/28 04:40:58;;;;;;;42.25;34.22;;;;;;;;;;5011502;28;20032;-67
2023/12/28 04:43:24;;;;;;;39.28;33.63;;;;;;;;;;5011631;28;20022;-67
2023/12/28 04:45:51;;;;;;;39.80;34.80;;;;;;;;;;5011932;28;20399;-67
2023/12/28 04:48:21;;;;;;;41.70;34.72;;;;;;;;;;5013235;28;20026;-68
2023/12/28 04:50:49;;;;;;;42.63;34.13;;;;;;;;;;5010449;28;20060;-66
2023/12/28 04:53:16;;;;;;;42.67;34.58;;;;;;;;;;5007227;28;20025;-67
2023/12/28 04:55:42;;;;;;;40.83;33.50;;;;;;;;;;5008569;28;20026;-67
2023/12/28 04:58:08;;;;;;;43.30;35.08;;;;;;;;;;5005583;28;20081;-67
2023/12/28 05:00:34;;;;;;;42.30;32.47;;;;;;;;;;5010825;28;20078;-68
2023/12/28 05:03:00;;;;;;;40.83;32.65;;;;;;;;;;5006606;28;20054;-67
2023/12/28 05:05:26;;;;;;;41.15;34.15;;;;;;;;;;5006768;28;20049;-67
2023/12/28 05:07:52;;;;;;;41.90;34.20;;;;;;;;;;5011765;28;20018;-67
2023/12/28 05:10:18;;;;;;;42.55;34.50;;;;;;;;;;5009985;28;20100;-67
2023/12/28 05:12:44;;;;;;;40.70;31.13;;;;;;;;;;5009718;28;20388;-67
2023/12/28 05:15:10;;;;;;;39.53;32.88;;;;;;;;;;5011372;28;20492;-67
2023/12/28 05:17:36;;;;;;;42.22;34.20;;;;;;;;;;5011492;28;20022;-67
2023/12/28 05:20:02;;;;;;;45.17;34.03;;;;;;;;;;5011337;28;20093;-67
2023/12/28 05:22:28;;;;;;;42.45;34.70;;;;;;;;;;5011377;28;20383;-67
2023/12/28 05:24:54;;;;;;;41.67;33.63;;;;;;;;;;5011105;28;20022;-67
2023/12/28 05:27:20;;;;;;;43.50;31.65;;;;;;;;;;5004933;28;20040;-67
2023/12/28 05:29:46;;;;;;;41.30;31.77;;;;;;;;;;5011015;28;20418;-67
2023/12/28 05:32:12;;;;;;;37.88;32.15;;;;;;;;;;5011220;28;20026;-67
2023/12/28 05:34:38;;;;;;;39.95;32.05;;;;;;;;;;5011843;28;20057;-67
2023/12/28 05:37:04;;;;;;;44.35;33.63;;;;;;;;;;5015073;28;20104;-67
2023/12/28 05:39:30;;;;;;;39.10;33.22;;;;;;;;;;5014603;28;20018;-67
2023/12/28 05:41:56;;;;;;;39.45;31.85;;;;;;;;;;5013302;28;20033;-67
2023/12/28 05:44:22;;;;;;;38.67;31.08;;;;;;;;;;5014735;28;20026;-67
2023/12/28 05:46:48;;;;;;;40.75;32.08;;;;;;;;;;5014611;28;20025;-67
2023/12/28 05:49:14;;;;;;;39.15;32.55;;;;;;;;;;5011692;28;20026;-67
2023/12/28 05:51:41;;;;;;;38.03;31.52;;;;;;;;;;5011816;28;20037;-67
2023/12/28 05:54:07;;;;;;;39.90;31.85;;;;;;;;;;5014907;28;20049;-67
2023/12/28 05:56:33;;;;;;;42.35;33.45;;;;;;;;;;5012938;28;20026;-67
2023/12/28 05:58:59;;;;;;;38.47;31.90;;;;;;;;;;5014408;28;20034;-67
2023/12/28 06:01:25;;;;;;;37.08;31.35;;;;;;;;;;5014414;28;20037;-67
2023/12/28 06:03:52;;;;;;;37.72;32.15;;;;;;;;;;5014434;28;20045;-67
2023/12/28 06:06:18;;;;;;;41.53;34.67;;;;;;;;;;5014299;28;20018;-67
2023/12/28 06:08:44;;;;;;;43.97;32.88;;;;;;;;;;5012596;28;20407;-67
2023/12/28 06:11:11;;;;;;;40.83;33.08;;;;;;;;;;5014244;28;20036;-68
2023/12/28 06:13:37;;;;;;;41.35;33.25;;;;;;;;;;5014365;28;20026;-67
2023/12/28 06:16:03;;;;;;;44.40;33.72;;;;;;;;;;5014122;28;20042;-68
2023/12/28 06:18:29;;;;;;;38.08;32.28;;;;;;;;;;5014125;28;20115;-67
2023/12/28 06:20:55;;;;;;;39.20;31.95;;;;;;;;;;5014074;28;20018;-67
2023/12/28 06:23:21;;;;;;;36.78;29.98;;;;;;;;;;5014073;28;20037;-67
2023/12/28 06:25:47;;;;;;;36.42;31.38;;;;;;;;;;5013958;28;20372;-67
2023/12/28 06:28:13;;;;;;;39.55;31.13;;;;;;;;;;5012495;28;20022;-67
2023/12/28 06:30:39;;;;;;;36.60;28.92;;;;;;;;;;5012559;28;20435;-67
2023/12/28 06:33:05;;;;;;;34.33;29.52;;;;;;;;;;5014122;28;20356;-67
2023/12/28 06:35:31;;;;;;;39.00;30.55;;;;;;;;;;4996040;28;20058;-67
2023/12/28 06:37:57;;;;;;;36.55;30.08;;;;;;;;;;5012502;28;20044;-67
2023/12/28 06:40:23;;;;;;;38.55;27.92;;;;;;;;;;5008661;28;20026;-67
2023/12/28 06:42:49;;;;;;;36.70;29.25;;;;;;;;;;5012102;28;20026;-67
2023/12/28 06:45:15;;;;;;;34.83;29.52;;;;;;;;;;5013602;28;20449;-67
2023/12/28 06:47:41;;;;;;;36.40;29.60;;;;;;;;;;5011125;28;20066;-67
2023/12/28 06:50:08;;;;;;;33.35;29.55;;;;;;;;;;5013752;28;20048;-67
2023/12/28 06:52:34;;;;;;;35.72;29.48;;;;;;;;;;5013437;28;20036;-67
2023/12/28 06:55:00;;;;;;;34.22;28.42;;;;;;;;;;5013654;28;20101;-67
2023/12/28 06:57:26;;;;;;;38.38;28.50;;;;;;;;;;5012001;28;20037;-67
2023/12/28 06:59:52;;;;;;;35.88;29.35;;;;;;;;;;5013146;28;20029;-67
2023/12/28 07:02:18;;;;;;;34.17;27.42;;;;;;;;;;5013456;28;20030;-67
2023/12/28 07:04:44;;;;;;;33.40;27.83;;;;;;;;;;5013417;28;20475;-67
2023/12/28 07:07:10;;;;;;;33.03;27.85;;;;;;;;;;5004339;28;20277;-67
2023/12/28 07:09:37;;;;;;;35.50;28.25;;;;;;;;;;5013138;28;20033;-67
2023/12/28 07:12:03;;;;;;;35.15;28.83;;;;;;;;;;5012890;28;20057;-67
2023/12/28 07:14:29;;;;;;;32.20;28.23;;;;;;;;;;5013026;28;20059;-67
2023/12/28 07:16:55;;;;;;;35.17;29.92;;;;;;;;;;5013329;28;20056;-67
2023/12/28 07:19:21;;;;;;;35.22;29.45;;;;;;;;;;5013237;28;20396;-67
2023/12/28 07:21:47;;;;;;;35.22;29.60;;;;;;;;;;5012934;28;20021;-67
2023/12/28 07:24:13;;;;;;;39.72;30.02;;;;;;;;;;5013002;28;20178;-67
2023/12/28 07:26:39;;;;;;;36.38;29.95;;;;;;;;;;5012736;28;20057;-68
2023/12/28 07:29:05;;;;;;;34.50;30.02;;;;;;;;;;5012763;28;20033;-68
2023/12/28 07:31:31;;;;;;;34.65;27.65;;;;;;;;;;5012674;28;20518;-68
2023/12/28 07:34:16;;;;;;;37.90;27.67;;;;;;;;;;5012437;28;20157;-68
2023/12/28 07:36:43;;;;;;;33.65;27.27;;;;;;;;;;5012648;28;20030;-67
2023/12/28 07:39:09;;;;;;;32.05;26.40;;;;;;;;;;5011278;28;20018;-68
2023/12/28 07:41:35;;;;;;;35.17;27.88;;;;;;;;;;5012402;28;20026;-67
2023/12/28 07:44:01;;;;;;;32.75;27.25;;;;;;;;;;5012679;28;20026;-67
2023/12/28 07:46:27;;;;;;;32.35;27.25;;;;;;;;;;5012243;28;20029;-67
2023/12/28 07:48:53;;;;;;;32.75;26.63;;;;;;;;;;5011104;28;20024;-67
2023/12/28 07:51:20;;;;;;;32.17;27.40;;;;;;;;;;5012357;28;20178;-67
2023/12/28 07:53:46;;;;;;;29.05;25.95;;;;;;;;;;5012497;28;20022;-67
2023/12/28 07:56:12;;;;;;;29.95;25.75;;;;;;;;;;5012181;28;20021;-67
2023/12/28 07:58:39;;;;;;;32.25;26.02;;;;;;;;;;5011918;28;20038;-67
2023/12/28 08:01:09;;;;;;;30.05;24.55;;;;;;;;;;5012535;28;20329;-67
2023/12/28 08:03:35;;;;;;;30.70;23.63;;;;;;;;;;5008725;28;20108;-69
2023/12/28 08:06:01;;;;;;;31.08;25.17;;;;;;;;;;5012216;28;20105;-67
2023/12/28 08:08:27;;;;;;;28.83;23.92;;;;;;;;;;5012014;28;20029;-67
2023/12/28 08:10:53;;;;;;;30.33;24.27;;;;;;;;;;5012064;28;20022;-67
2023/12/28 08:13:19;;;;;;;33.88;25.73;;;;;;;;;;5011981;28;20033;-69
2023/12/28 08:15:46;;;;;;;28.17;24.33;;;;;;;;;;5010711;28;20105;-68
2023/12/28 08:18:12;;;;;;;31.83;24.75;;;;;;;;;;5011921;28;20365;-68
2023/12/28 08:20:38;;;;;;;29.58;24.98;;;;;;;;;;5011915;28;20513;-67
2023/12/28 08:23:04;;;;;;;33.22;26.08;;;;;;;;;;5012032;28;20072;-67
2023/12/28 08:25:30;;;;;;;32.05;24.98;;;;;;;;;;5011727;28;20483;-67
2023/12/28 08:27:56;;;;;;;27.35;23.02;;;;;;;;;;5012181;28;20018;-68
2023/12/28 08:30:22;;;;;;;26.88;22.38;;;;;;;;;;5011865;28;20033;-67
2023/12/28 08:32:48;;;;;;;24.23;21.10;;;;;;;;;;5011730;28;20491;-67
2023/12/28 08:35:14;;;;;;;26.10;21.00;;;;;;;;;;5011712;28;20065;-67
2023/12/28 08:37:40;;;;;;;28.42;21.77;;;;;;;;;;5011850;28;20041;-67
2023/12/28 08:40:06;;;;;;;29.27;20.98;;;;;;;;;;5011903;28;20026;-67
2023/12/28 08:42:32;;;;;;;25.20;20.65;;;;;;;;;;5011620;28;20109;-68
2023/12/28 08:44:58;;;;;;;28.38;22.08;;;;;;;;;;5011684;28;20505;-67
2023/12/28 08:47:24;;;;;;;27.60;20.27;;;;;;;;;;5011651;28;20037;-68
2023/12/28 08:49:50;;;;;;;25.00;20.65;;;;;;;;;;5011985;28;20113;-68
2023/12/28 08:52:18;;;;;;;25.98;21.92;;;;;;;;;;5011848;28;20037;-67
2023/12/28 08:54:44;;;;;;;26.83;21.98;;;;;;;;;;5011578;28;20093;-67
2023/12/28 08:57:10;;;;;;;28.23;20.92;;;;;;;;;;5011505;28;20495;-68
2023/12/28 08:59:37;;;;;;;24.83;20.77;;;;;;;;;;5009696;28;20034;-67
2023/12/28 09:02:03;;;;;;;26.42;20.15;;;;;;;;;;5015484;28;20025;-68
2023/12/28 09:04:29;;;;;;;27.08;20.85;;;;;;;;;;5020278;28;20025;-68
2023/12/28 09:06:55;;;;;;;29.70;22.20;;;;;;;;;;5011525;28;20152;-68
2023/12/28 09:09:21;;;;;;;31.13;21.08;;;;;;;;;;5012106;28;20026;-67
2023/12/28 09:11:47;;;;;;;32.20;21.80;;;;;;;;;;5015428;28;20131;-68
2023/12/28 09:14:13;;;;;;;26.52;20.48;;;;;;;;;;5015319;28;20448;-67
2023/12/28 09:16:40;;;;;;;26.13;20.98;;;;;;;;;;5010962;28;20049;-68
2023/12/28 09:19:06;;;;;;;23.10;20.08;;;;;;;;;;5011380;28;20099;-67
2023/12/28 09:21:32;;;;;;;28.35;19.42;;;;;;;;;;5012476;28;20030;-67
2023/12/28 09:23:58;;;;;;;25.67;20.30;;;;;;;;;;5011267;28;20045;-68
2023/12/28 09:26:24;;;;;;;25.58;19.95;;;;;;;;;;5013731;28;20036;-68
2023/12/28 09:28:50;;;;;;;24.90;20.65;;;;;;;;;;5014946;28;20030;-68
2023/12/28 09:31:16;;;;;;;25.40;20.55;;;;;;;;;;5024352;28;20109;-68
2023/12/28 09:33:42;;;;;;;24.30;19.58;;;;;;;;;;5019167;28;20073;-67
2023/12/28 09:36:12;;;;;;;23.55;19.70;;;;;;;;;;5028902;28;20125;-67
2023/12/28 09:38:38;;;;;;;25.90;18.33;;;;;;;;;;5014874;28;20040;-68
2023/12/28 09:41:14;;;;;;;25.92;18.45;;;;;;;;;;5014740;28;20109;-67
2023/12/28 09:43:54;;;;;;;21.48;18.23;;;;;;;;;;5007775;28;20065;-68
2023/12/28 09:46:20;;;;;;;21.45;18.08;;;;;;;;;;5020386;28;20025;-67
2023/12/28 09:48:46;;;;;;;20.35;17.45;;;;;;;;;;5014640;28;20026;-68
2023/12/28 09:51:13;;;;;;;24.80;18.42;;;;;;;;;;5014583;28;20030;-69
2023/12/28 09:53:39;;;;;;;19.85;17.27;;;;;;;;;;5014693;28;20030;-68
2023/12/28 09:56:05;;;;;;;23.70;18.67;;;;;;;;;;5014613;28;20088;-68
2023/12/28 09:58:32;;;;;;;23.35;19.15;;;;;;;;;;5014297;28;20437;-68
2023/12/28 10:01:01;;;;;;;31.05;23.73;;;;;;;;;;5021156;28;20057;-68
2023/12/28 10:03:27;;;;;;;24.65;19.55;;;;;;;;;;5019613;28;20038;-68
2023/12/28 10:05:53;;;;;;;21.63;18.25;;;;;;;;;;5014715;28;20428;-68
2023/12/28 10:08:19;;;;;;;23.20;18.65;;;;;;;;;;5014278;28;20034;-68
2023/12/28 10:10:52;;;;;;;25.10;19.73;;;;;;;;;;5014429;28;20041;-68
2023/12/28 10:13:18;;;;;;;26.45;20.02;;;;;;;;;;5014486;28;20113;-68
2023/12/28 10:15:44;;;;;;;28.73;23.08;;;;;;;;;;5014372;28;20116;-68
2023/12/28 10:18:10;;;;;;;31.63;22.90;;;;;;;;;;5014344;28;20053;-68
2023/12/28 10:20:37;;;;;;;31.13;23.98;;;;;;;;;;5012072;28;20476;-68
2023/12/28 10:23:03;;;;;;;30.15;22.75;;;;;;;;;;5013353;28;20052;-68
2023/12/28 10:25:29;;;;;;;25.02;22.20;;;;;;;;;;5014135;28;20384;-69
2023/12/28 10:27:55;;;;;;;26.98;20.60;;;;;;;;;;5014293;28;20033;-68
2023/12/28 10:30:22;;;;;;;27.23;21.67;;;;;;;;;;5013966;28;20025;-68
2023/12/28 10:32:48;;;;;;;22.23;19.77;;;;;;;;;;5013884;28;20033;-67
2023/12/28 10:35:14;;;;;;;22.98;19.33;;;;;;;;;;5022585;28;20510;-67
2023/12/28 10:37:41;;;;;;;23.00;19.90;;;;;;;;;;5018326;28;20034;-68
2023/12/28 10:40:08;;;;;;;29.40;20.55;;;;;;;;;;5014034;28;20026;-67
2023/12/28 10:42:38;;;;;;;25.00;18.63;;;;;;;;;;5013717;28;20396;-67
2023/12/28 10:45:07;;;;;;;26.92;19.00;;;;;;;;;;5000032;28;20132;-67
2023/12/28 10:47:34;;;;;;;27.42;18.80;;;;;;;;;;5013561;28;20106;-67
2023/12/28 10:50:02;;;;;;;25.55;19.98;;;;;;;;;;5013587;28;20018;-68
2023/12/28 10:52:29;;;;;;;28.92;20.25;;;;;;;;;;5013796;28;20030;-67
2023/12/28 10:55:03;;;;;;;24.10;19.85;;;;;;;;;;5013347;28;20029;-67
2023/12/28 10:57:36;;;;;;;31.13;21.33;;;;;;;;;;5012168;28;20121;-68
2023/12/28 11:00:07;;;;;;;29.50;20.60;;;;;;;;;;5013318;28;20017;-68
2023/12/28 11:02:39;;;;;;;29.65;20.33;;;;;;;;;;5013575;28;20315;-67
2023/12/28 11:05:06;;;;;;;23.55;19.55;;;;;;;;;;5013343;28;20018;-67
2023/12/28 11:07:33;;;;;;;29.20;19.80;;;;;;;;;;5013361;28;20491;-67
2023/12/28 11:10:01;;;;;;;27.63;19.88;;;;;;;;;;5013252;28;20018;-68
2023/12/28 11:12:28;;;;;;;28.40;19.33;;;;;;;;;;5013183;28;20049;-68
2023/12/28 11:14:54;;;;;;;28.42;21.77;;;;;;;;;;5013125;28;20022;-68
2023/12/28 11:17:21;;;;;;;23.95;18.55;;;;;;;;;;5012818;28;20046;-68
2023/12/28 11:19:47;;;;;;;24.77;19.00;;;;;;;;;;5013335;28;20030;-68
2023/12/28 11:22:14;;;;;;;25.05;20.52;;;;;;;;;;5012813;28;20459;-67
2023/12/28 11:24:40;;;;;;;25.88;19.58;;;;;;;;;;5012939;28;20136;-67
2023/12/28 11:27:06;;;;;;;23.98;19.05;;;;;;;;;;5012746;28;20452;-67
2023/12/28 11:29:32;;;;;;;32.17;20.48;;;;;;;;;;5012889;28;20160;-68
2023/12/28 11:31:59;;;;;;;22.98;18.52;;;;;;;;;;5005895;28;20361;-67
2023/12/28 11:34:26;;;;;;;24.95;19.13;;;;;;;;;;5014780;28;20123;-69
2023/12/28 11:36:54;;;;;;;24.98;20.75;;;;;;;;;;5023880;28;20069;-68
2023/12/28 11:39:25;;;;;;;25.23;20.25;;;;;;;;;;5006935;28;20026;-68
2023/12/28 11:41:51;;;;;;;29.77;21.02;;;;;;;;;;5012653;28;20092;-68
2023/12/28 11:44:17;;;;;;;27.23;19.77;;;;;;;;;;5012613;28;20128;-68
2023/12/28 11:46:43;;;;;;;22.52;19.42;;;;;;;;;;5011050;28;20057;-68
2023/12/28 11:49:09;;;;;;;25.60;20.13;;;;;;;;;;5012809;28;20064;-68
2023/12/28 11:51:37;;;;;;;23.60;19.77;;;;;;;;;;5012765;28;20408;-68
2023/12/28 11:54:03;;;;;;;26.83;22.38;;;;;;;;;;5012422;28;20030;-69
2023/12/28 11:56:29;;;;;;;26.13;20.38;;;;;;;;;;5009521;28;20480;-68
2023/12/28 11:58:55;;;;;;;28.67;20.05;;;;;;;;;;5010599;28;20050;-68
2023/12/28 12:01:22;;;;;;;34.60;20.15;;;;;;;;;;5006614;28;20128;-68
2023/12/28 12:03:49;;;;;;;20.77;18.23;;;;;;;;;;5012293;28;20034;-68
2023/12/28 12:06:15;;;;;;;25.30;20.35;;;;;;;;;;5012152;28;20029;-68
2023/12/28 12:08:41;;;;;;;26.60;20.38;;;;;;;;;;5012081;28;20472;-68
2023/12/28 12:11:07;;;;;;;25.13;18.80;;;;;;;;;;5012205;28;20038;-68
2023/12/28 12:13:33;;;;;;;25.70;20.27;;;;;;;;;;5012090;28;20025;-68
2023/12/28 12:16:05;;;;;;;25.00;19.50;;;;;;;;;;5012126;28;20117;-68
2023/12/28 12:18:31;;;;;;;30.00;21.75;;;;;;;;;;5011844;28;20037;-68
2023/12/28 12:20:58;;;;;;;31.30;20.48;;;;;;;;;;5012362;28;20163;-68
2023/12/28 12:23:24;;;;;;;22.95;19.60;;;;;;;;;;5012000;28;20030;-68
2023/12/28 12:25:50;;;;;;;30.13;20.30;;;;;;;;;;5012109;28;20030;-68
2023/12/28 12:28:16;;;;;;;27.65;20.40;;;;;;;;;;5011936;28;20026;-68
2023/12/28 12:30:50;;;;;;;25.17;20.63;;;;;;;;;;5011878;28;20033;-68
2023/12/28 12:33:16;;;;;;;24.85;20.25;;;;;;;;;;5012210;28;20033;-68
2023/12/28 12:35:42;;;;;;;28.55;20.65;;;;;;;;;;5024433;28;20052;-68
2023/12/28 12:44:33;;;;;;;27.52;19.88;;;;;;;;;;5006672;28;20092;-68
2023/12/28 12:47:00;;;;;;;25.52;19.95;;;;;;;;;;4999770;28;20033;-68
2023/12/28 12:49:26;;;;;;;26.40;19.45;;;;;;;;;;5012174;28;20399;-69
2023/12/28 12:51:52;;;;;;;22.75;19.20;;;;;;;;;;4998147;28;20026;-68
2023/12/28 12:54:18;;;;;;;24.00;15.93;;;;;;;;;;5011566;28;20089;-68
2023/12/28 12:56:45;;;;;;;23.83;17.17;;;;;;;;;;5011424;28;20018;-68
2023/12/28 12:59:17;;;;;;;22.33;15.27;;;;;;;;;;5011426;28;20408;-68
2023/12/28 13:01:43;;;;;;;21.23;15.40;;;;;;;;;;5011512;28;20025;-68
2023/12/28 13:04:09;;;;;;;18.95;15.77;;;;;;;;;;5011702;28;20026;-69
2023/12/28 13:06:35;;;;;;;18.65;15.52;;;;;;;;;;5011475;28;20040;-69
2023/12/28 13:09:01;;;;;;;21.70;15.90;;;;;;;;;;5011561;28;20380;-68
2023/12/28 13:11:27;;;;;;;23.10;18.35;;;;;;;;;;5011604;28;20033;-68
2023/12/28 13:13:53;;;;;;;22.98;17.92;;;;;;;;;;5011392;28;20076;-68
2023/12/28 13:16:19;;;;;;;21.80;17.15;;;;;;;;;;5011590;28;20104;-68
2023/12/28 13:18:45;;;;;;;22.80;17.33;;;;;;;;;;5009865;28;20444;-68
2023/12/28 13:21:12;;;;;;;26.33;19.83;;;;;;;;;;5011544;28;20076;-68
2023/12/28 13:23:38;;;;;;;26.63;20.25;;;;;;;;;;5011299;28;20053;-68
2023/12/28 13:26:04;;;;;;;29.00;20.55;;;;;;;;;;5011296;28;20057;-68
2023/12/28 13:28:30;;;;;;;24.40;21.67;;;;;;;;;;5011301;28;20112;-68
2023/12/28 13:30:56;;;;;;;28.80;20.75;;;;;;;;;;5011240;28;20026;-69
2023/12/28 13:33:24;;;;;;;29.60;21.17;;;;;;;;;;5011343;28;20018;-68
2023/12/28 13:35:50;;;;;;;25.10;19.42;;;;;;;;;;5024979;28;20064;-68
2023/12/28 13:38:16;;;;;;;24.52;19.50;;;;;;;;;;5006488;28;21154;-68
2023/12/28 13:40:42;;;;;;;26.63;19.48;;;;;;;;;;5002947;28;20045;-68
2023/12/28 13:43:09;;;;;;;25.17;21.02;;;;;;;;;;5008173;28;20387;-68
2023/12/28 13:45:35;;;;;;;25.08;20.08;;;;;;;;;;5009922;28;20030;-68
2023/12/28 13:48:02;;;;;;;24.35;19.38;;;;;;;;;;5009859;28;20113;-68
2023/12/28 13:50:28;;;;;;;27.30;20.73;;;;;;;;;;5011197;28;20029;-68
2023/12/28 13:52:54;;;;;;;24.48;20.35;;;;;;;;;;5010972;28;20125;-68
2023/12/28 13:55:20;;;;;;;24.27;19.63;;;;;;;;;;5011648;28;20032;-68
2023/12/28 13:57:46;;;;;;;28.55;19.38;;;;;;;;;;5013094;28;20092;-68
2023/12/28 14:00:13;;;;;;;22.67;17.85;;;;;;;;;;5014610;28;20030;-68
2023/12/28 14:02:40;;;;;;;23.83;18.02;;;;;;;;;;5014371;28;20380;-68
2023/12/28 14:05:06;;;;;;;23.52;17.50;;;;;;;;;;5014490;28;20451;-68
2023/12/28 14:07:32;;;;;;;19.15;16.38;;;;;;;;;;5014245;28;20053;-68
2023/12/28 14:09:58;;;;;;;19.80;17.27;;;;;;;;;;5013021;28;20472;-68
2023/12/28 14:12:25;;;;;;;22.38;17.75;;;;;;;;;;5014201;28;20022;-68
2023/12/28 14:14:51;;;;;;;25.52;19.70;;;;;;;;;;5014220;28;20088;-68
2023/12/28 14:17:19;;;;;;;20.77;16.95;;;;;;;;;;5012739;28;20033;-68
2023/12/28 14:19:45;;;;;;;24.50;18.60;;;;;;;;;;5014047;28;20104;-68
2023/12/28 14:22:11;;;;;;;23.35;18.58;;;;;;;;;;5014135;28;20038;-68